Time;durP1;ratioP1;P1;durP2;ratioP2;P2;SDS_P1;SDS_P2;PMS_P1;PMS_P2;Temp;Humidity;BMP_temperature;BMP_pressure;BME280_temperature;BME280_humidity;BME280_pressure;Samples;Min_cycle;Max_cycle;Signal;HPM_P1;HPM_P2
2023/01/24 00:01:21;;;;;;;1.37;1.30;;;;;;;7.55;71.88;100545.97;4487105;32;34875;-73
2023/01/24 00:03:49;;;;;;;4.07;3.72;;;;;;;7.71;71.89;100532.50;4473344;32;34339;-73
2023/01/24 00:06:17;;;;;;;1.75;1.65;;;;;;;7.66;71.92;100530.62;4487098;32;33450;-70
2023/01/24 00:08:45;;;;;;;1.42;1.33;;;;;;;7.68;71.37;100534.16;4487056;32;34751;-73
2023/01/24 00:11:14;;;;;;;1.37;1.27;;;;;;;7.69;71.53;100525.53;4486972;32;35091;-70
2023/01/24 00:13:42;;;;;;;1.10;1.10;;;;;;;7.62;72.43;100532.28;4487035;32;34668;-74
2023/01/24 00:16:21;;;;;;;1.85;1.73;;;;;;;7.69;71.18;100534.16;4487040;32;33628;-73
2023/01/24 00:18:49;;;;;;;1.85;1.75;;;;;;;7.14;73.35;100531.28;4487017;32;33914;-74
2023/01/24 00:21:20;;;;;;;3.40;2.87;;;;;;;7.28;72.66;100536.78;4486945;32;34943;-73
2023/01/24 00:23:50;;;;;;;2.40;2.20;;;;;;;7.19;73.02;100531.41;4486869;32;34500;-73
2023/01/24 00:26:20;;;;;;;0.75;0.75;;;;;;;7.30;72.25;100535.09;4487060;32;33468;-74
2023/01/24 00:28:49;;;;;;;3.15;2.85;;;;;;;7.05;72.91;100528.50;4486914;32;33930;-74
2023/01/24 00:31:18;;;;;;;0.88;0.88;;;;;;;7.08;73.32;100533.75;4486898;32;34983;-73
2023/01/24 00:33:46;;;;;;;4.43;2.08;;;;;;;7.26;72.41;100538.47;4486710;32;34597;-73
2023/01/24 00:36:15;;;;;;;2.10;2.00;;;;;;;6.57;74.40;100536.84;4472826;32;33668;-73
2023/01/24 00:38:43;;;;;;;2.03;1.75;;;;;;;6.45;75.02;100540.00;4486926;32;34637;-71
2023/01/24 00:41:11;;;;;;;4.18;1.48;;;;;;;6.85;72.93;100541.00;4486810;32;36004;-73
2023/01/24 00:43:39;;;;;;;1.25;1.15;;;;;;;6.87;73.30;100543.62;4486820;32;34446;-74
2023/01/24 00:46:08;;;;;;;1.40;1.30;;;;;;;7.42;71.09;100539.66;4486851;32;33509;-73
2023/01/24 00:48:37;;;;;;;2.05;1.10;;;;;;;7.28;70.95;100546.28;4486878;32;33218;-73
2023/01/24 00:51:05;;;;;;;1.67;1.52;;;;;;;7.21;71.22;100542.66;4486716;32;35631;-74
2023/01/24 00:53:34;;;;;;;1.85;1.37;;;;;;;6.97;72.37;100541.28;4486477;32;35230;-74
2023/01/24 00:56:02;;;;;;;1.52;1.40;;;;;;;7.12;71.80;100545.06;4486767;32;34344;-73
2023/01/24 00:58:32;;;;;;;1.27;1.23;;;;;;;7.07;71.83;100551.84;4486668;32;34654;-73
2023/01/24 01:01:04;;;;;;;0.73;0.73;;;;;;;7.36;70.49;100550.78;4486701;32;34187;-73
2023/01/24 01:03:32;;;;;;;1.30;1.20;;;;;;;7.00;71.49;100559.44;4486277;32;35347;-73
2023/01/24 01:06:10;;;;;;;1.40;1.30;;;;;;;7.58;69.73;100559.00;4486733;32;33442;-73
2023/01/24 01:08:38;;;;;;;1.25;1.15;;;;;;;7.39;69.71;100553.44;4472632;32;33894;-73
2023/01/24 01:11:07;;;;;;;0.60;0.60;;;;;;;7.46;70.16;100556.16;4486566;32;35926;-73
2023/01/24 01:13:35;;;;;;;1.20;1.20;;;;;;;7.55;69.15;100562.44;4486784;32;35322;-73
2023/01/24 01:16:09;;;;;;;0.93;0.93;;;;;;;7.68;68.43;100562.69;4486646;32;34335;-73
2023/01/24 01:18:38;;;;;;;0.82;0.82;;;;;;;7.40;69.75;100562.94;4486623;32;34823;-73
2023/01/24 01:21:06;;;;;;;0.95;0.95;;;;;;;7.52;69.32;100571.84;4486565;32;35023;-73
2023/01/24 01:23:34;;;;;;;0.98;0.98;;;;;;;7.75;68.10;100570.59;4486448;32;34508;-73
2023/01/24 01:26:05;;;;;;;1.83;1.60;;;;;;;7.48;68.94;100570.00;4486529;32;34389;-71
2023/01/24 01:28:34;;;;;;;0.90;0.90;;;;;;;7.31;69.15;100567.06;4486874;32;33958;-70
2023/01/24 01:31:02;;;;;;;0.75;0.75;;;;;;;7.33;69.37;100568.84;4486748;32;35543;-73
2023/01/24 01:33:30;;;;;;;5.60;3.15;;;;;;;7.13;69.99;100575.28;4486374;32;35326;-73
2023/01/24 01:35:59;;;;;;;0.90;0.90;;;;;;;7.46;68.42;100571.69;4486443;32;34297;-73
2023/01/24 01:38:28;;;;;;;1.48;1.40;;;;;;;7.18;69.69;100571.97;4486517;32;34080;-73
2023/01/24 01:40:56;;;;;;;2.85;1.62;;;;;;;7.55;67.78;100566.72;4486326;32;34996;-72
2023/01/24 01:43:27;;;;;;;0.88;0.88;;;;;;;7.46;68.44;100577.75;4486515;32;34396;-73
2023/01/24 01:46:21;;;;;;;2.03;1.83;;;;;;;6.97;69.64;100569.75;4486519;32;33444;-70
2023/01/24 01:48:51;;;;;;;2.72;2.53;;;;;;;6.95;69.60;100576.63;4472465;32;34779;-73
2023/01/24 01:51:41;;;;;;;1.12;1.12;;;;;;;7.12;69.45;100586.50;4486337;32;35262;-73
2023/01/24 01:54:25;;;;;;;0.95;0.95;;;;;;;7.25;68.85;100580.72;4472026;32;35160;-73
2023/01/24 01:56:57;;;;;;;0.73;0.73;;;;;;;7.37;67.74;100582.75;4472494;32;33444;-70
2023/01/24 01:59:34;;;;;;;1.20;1.10;;;;;;;7.09;68.92;100581.22;4472360;32;34092;-73
2023/01/24 02:02:02;;;;;;;;;;;;;;;7.40;67.63;100588.00;4472938;32;35881;-72
2023/01/24 02:04:39;;;;;;;0.40;0.40;;;;;;;7.05;68.04;100584.59;4485157;32;34672;-73
2023/01/24 02:07:20;;;;;;;2.45;2.03;;;;;;;6.97;68.63;100587.88;4486579;32;33617;-73
2023/01/24 02:09:50;;;;;;;2.17;1.25;;;;;;;7.20;67.72;100587.56;4486619;32;34848;-73
2023/01/24 02:12:22;;;;;;;1.00;1.00;;;;;;;7.29;67.37;100590.34;4472185;32;35145;-73
2023/01/24 02:17:51;;;;;;;0.77;0.77;;;;;;;6.96;68.27;100593.88;4474461;32;34513;-73
2023/01/24 02:20:37;;;;;;;1.50;1.40;;;;;;;6.86;68.32;100594.50;4486387;32;34790;-74
2023/01/24 02:23:08;;;;;;;0.52;0.52;;;;;;;6.86;67.99;100596.22;4486139;32;34981;-72
2023/01/24 02:25:42;;;;;;;0.90;0.70;;;;;;;6.93;67.74;100593.81;4486217;32;34270;-73
2023/01/24 02:28:12;;;;;;;0.82;0.73;;;;;;;6.88;67.76;100598.00;4472580;32;32382;-73
2023/01/24 02:30:40;;;;;;;1.35;1.25;;;;;;;7.11;67.36;100595.09;4472259;32;34667;-73
2023/01/24 02:33:13;;;;;;;1.23;1.20;;;;;;;6.30;69.33;100591.34;4486236;32;34981;-74
2023/01/24 02:35:42;;;;;;;0.80;0.80;;;;;;;6.59;68.87;100589.53;4471926;32;34618;-74
2023/01/24 02:38:30;;;;;;;0.70;0.70;;;;;;;6.92;67.19;100594.66;4486118;32;33622;-73
2023/01/24 02:41:06;;;;;;;0.50;0.50;;;;;;;6.87;67.52;100596.25;4486212;32;34043;-73
2023/01/24 02:43:40;;;;;;;0.83;0.83;;;;;;;6.76;68.31;100593.41;4485230;32;36130;-70
2023/01/24 02:46:08;;;;;;;0.98;0.98;;;;;;;6.55;68.71;100593.75;4485974;32;34589;-73
2023/01/24 02:48:36;;;;;;;1.50;1.10;;;;;;;6.68;68.27;100589.75;4486001;32;34086;-71
2023/01/24 02:53:51;;;;;;;;;;;;;;;6.66;68.38;100598.31;4486012;32;35095;-73
2023/01/24 02:59:06;;;;;;;0.80;0.80;;;;;;;6.76;68.27;100608.06;4486160;32;33834;-70
2023/01/24 03:01:35;;;;;;;0.47;0.47;;;;;;;6.62;68.71;100603.41;4486051;32;34873;-70
2023/01/24 03:04:03;;;;;;;0.82;0.82;;;;;;;6.95;67.79;100607.69;4486095;32;35852;-73
2023/01/24 03:06:32;;;;;;;2.03;1.87;;;;;;;6.93;67.28;100609.34;4485891;32;34607;-73
2023/01/24 03:09:18;;;;;;;0.65;0.65;;;;;;;6.89;67.17;100614.44;4485748;32;33638;-73
2023/01/24 03:11:46;;;;;;;;;;;;;;;6.82;67.80;100615.97;4486295;32;33929;-73
2023/01/24 03:36:31;;;;;;;0.80;0.80;;;;;;;6.42;66.43;100626.19;4487637;32;34992;-73
2023/01/24 03:41:47;;;;;;;1.23;1.12;;;;;;;6.58;67.09;100629.16;4487629;32;33365;-72
2023/01/24 03:44:15;;;;;;;0.90;0.90;;;;;;;6.99;65.14;100626.78;4487432;32;34713;-70
2023/01/24 03:46:43;;;;;;;0.60;0.60;;;;;;;6.97;65.67;100628.41;4487468;32;34650;-70
2023/01/24 03:49:12;;;;;;;1.27;1.02;;;;;;;6.88;66.59;100630.78;4487210;32;34248;-73
2023/01/24 03:54:27;;;;;;;;;;;;;;;6.97;65.62;100626.72;4487645;32;34909;-73
2023/01/24 03:56:56;;;;;;;2.25;2.00;;;;;;;6.75;66.32;100625.31;4487370;32;35300;-70
2023/01/24 03:59:24;;;;;;;0.40;0.40;;;;;;;6.69;66.82;100625.16;4487123;32;34606;-71
2023/01/24 04:01:52;;;;;;;2.25;0.90;;;;;;;6.77;66.65;100621.03;4487414;32;33774;-74
2023/01/24 04:04:21;;;;;;;0.60;0.60;;;;;;;7.04;66.06;100630.31;4487347;32;34070;-73
2023/01/24 04:06:49;;;;;;;1.87;1.77;;;;;;;6.95;66.20;100624.94;4487406;32;35021;-73
2023/01/24 04:09:18;;;;;;;2.45;1.80;;;;;;;7.12;66.40;100627.94;4487272;32;34504;-70
2023/01/24 04:11:47;;;;;;;0.57;0.57;;;;;;;6.75;67.81;100627.03;4487357;32;34145;-70
2023/01/24 04:14:15;;;;;;;1.83;0.80;;;;;;;6.49;69.66;100623.75;4487023;32;34111;-73
2023/01/24 04:16:45;;;;;;;0.70;0.70;;;;;;;6.49;69.79;100627.22;4487057;32;34628;-73
2023/01/24 04:19:13;;;;;;;4.00;3.60;;;;;;;6.17;71.73;100631.53;4487012;32;34429;-73
2023/01/24 04:21:42;;;;;;;0.43;0.43;;;;;;;6.57;69.95;100630.88;4487372;32;34199;-73
2023/01/24 04:24:10;;;;;;;1.05;1.05;;;;;;;6.63;69.86;100628.44;4486920;32;34843;-73
2023/01/24 04:26:39;;;;;;;1.27;1.17;;;;;;;6.59;69.96;100631.78;4487116;32;35160;-73
2023/01/24 04:29:07;;;;;;;3.20;3.00;;;;;;;6.40;71.18;100630.44;4487216;32;35082;-70
2023/01/24 04:31:35;;;;;;;0.50;0.50;;;;;;;6.31;71.74;100629.31;4486911;32;33467;-73
2023/01/24 04:34:04;;;;;;;2.35;2.08;;;;;;;6.05;72.09;100627.75;4487274;32;33946;-70
2023/01/24 04:36:33;;;;;;;0.95;0.95;;;;;;;6.00;72.91;100628.44;4487069;32;35008;-73
2023/01/24 04:39:02;;;;;;;1.85;1.75;;;;;;;6.64;70.20;100630.22;4486541;32;34501;-73
2023/01/24 04:41:30;;;;;;;1.12;1.02;;;;;;;6.69;70.04;100632.94;4487138;32;33450;-73
2023/01/24 04:43:58;;;;;;;1.02;1.02;;;;;;;6.52;70.39;100629.03;4487064;32;33968;-70
2023/01/24 04:46:28;;;;;;;2.58;1.35;;;;;;;6.55;70.25;100635.16;4487131;32;35116;-71
2023/01/24 04:48:56;;;;;;;0.62;0.62;;;;;;;6.16;72.78;100637.50;4486759;32;34459;-73
2023/01/24 04:51:25;;;;;;;1.00;1.00;;;;;;;6.21;72.49;100636.84;4486829;32;34521;-73
2023/01/24 04:53:53;;;;;;;0.60;0.60;;;;;;;6.02;73.14;100642.31;4486530;32;34668;-71
2023/01/24 04:56:22;;;;;;;1.35;1.25;;;;;;;6.22;72.54;100635.97;4486945;32;35005;-73
2023/01/24 04:58:50;;;;;;;0.88;0.82;;;;;;;6.32;71.88;100638.81;4486907;32;35268;-73
2023/01/24 05:01:18;;;;;;;1.02;1.02;;;;;;;6.30;71.83;100638.78;4486624;32;33555;-70
2023/01/24 05:03:48;;;;;;;0.90;0.90;;;;;;;6.30;72.08;100648.25;4486849;32;34064;-73
2023/01/24 05:06:16;;;;;;;2.30;2.12;;;;;;;6.69;70.48;100652.72;4486927;32;35809;-73
2023/01/24 05:08:44;;;;;;;3.67;3.35;;;;;;;6.63;69.79;100653.47;4486731;32;34485;-70
2023/01/24 05:11:14;;;;;;;2.20;2.10;;;;;;;6.41;70.38;100654.59;4487003;32;33694;-73
2023/01/24 05:13:43;;;;;;;1.00;1.00;;;;;;;6.02;73.30;100652.66;4486951;32;33117;-70
2023/01/24 05:16:12;;;;;;;1.73;1.62;;;;;;;6.04;72.86;100654.44;4486568;32;35992;-73
2023/01/24 05:18:40;;;;;;;0.93;0.93;;;;;;;6.82;70.33;100649.63;4486604;32;35160;-73
2023/01/24 05:21:11;;;;;;;3.08;2.78;;;;;;;6.10;72.50;100656.31;4472595;32;34365;-70
2023/01/24 05:23:40;;;;;;;3.10;2.90;;;;;;;5.45;75.47;100661.25;4486848;32;33941;-72
2023/01/24 05:26:08;;;;;;;2.20;2.10;;;;;;;6.50;71.17;100661.75;4486377;32;35997;-70
2023/01/24 05:28:36;;;;;;;2.47;2.28;;;;;;;5.90;73.24;100666.06;4486824;32;34414;-73
2023/01/24 05:31:08;;;;;;;1.30;1.20;;;;;;;6.56;70.52;100655.00;4486731;32;33370;-73
2023/01/24 05:33:36;;;;;;;0.80;0.80;;;;;;;6.11;71.84;100658.09;4486798;32;33960;-72
2023/01/24 05:36:07;;;;;;;6.22;2.87;;;;;;;6.33;71.56;100658.69;4486696;32;35120;-73
2023/01/24 05:38:36;;;;;;;1.58;1.33;;;;;;;5.94;72.13;100657.56;4486740;32;34487;-73
2023/01/24 05:41:06;;;;;;;0.62;0.62;;;;;;;6.16;70.59;100650.44;4472694;32;34429;-70
2023/01/24 05:43:35;;;;;;;0.88;0.88;;;;;;;5.99;73.12;100655.16;4486387;32;34003;-73
2023/01/24 05:46:09;;;;;;;2.03;1.92;;;;;;;5.88;72.11;100660.84;4486657;32;35022;-70
2023/01/24 05:48:39;;;;;;;13.80;4.20;;;;;;;6.32;71.14;100655.22;4472766;32;34316;-73
2023/01/24 05:51:10;;;;;;;2.25;1.77;;;;;;;6.02;71.68;100657.84;4486698;32;33462;-72
2023/01/24 05:53:40;;;;;;;1.17;1.15;;;;;;;5.64;73.55;100660.09;4486372;32;34757;-73
2023/01/24 05:56:18;;;;;;;0.50;0.50;;;;;;;5.85;73.61;100668.50;4486371;32;35825;-73
2023/01/24 05:58:47;;;;;;;0.93;0.70;;;;;;;5.64;74.63;100666.16;4486627;32;35198;-72
2023/01/24 06:01:18;;;;;;;0.50;0.50;;;;;;;4.97;77.17;100671.75;4486571;32;33398;-73
2023/01/24 06:03:49;;;;;;;0.52;0.52;;;;;;;5.48;74.81;100672.53;4486537;32;33922;-73
2023/01/24 06:06:20;;;;;;;11.23;3.65;;;;;;;5.96;72.42;100668.84;4486347;32;35041;-73
2023/01/24 06:08:49;;;;;;;1.00;1.00;;;;;;;6.07;71.54;100672.62;4486483;32;34306;-70
2023/01/24 06:11:20;;;;;;;1.27;1.23;;;;;;;6.16;70.74;100677.19;4486250;32;34277;-73
2023/01/24 06:13:49;;;;;;;1.02;1.02;;;;;;;5.90;71.56;100679.00;4472595;32;33928;-73
2023/01/24 06:16:20;;;;;;;1.20;1.02;;;;;;;5.99;71.38;100681.00;4472188;32;34953;-73
2023/01/24 06:18:50;;;;;;;1.12;1.02;;;;;;;6.02;71.08;100683.69;4486184;32;35101;-70
2023/01/24 06:21:36;;;;;;;0.82;0.82;;;;;;;5.80;71.68;100676.97;4486390;32;33320;-74
2023/01/24 06:24:05;;;;;;;1.52;1.42;;;;;;;5.32;73.86;100684.09;4486481;32;33896;-73
2023/01/24 06:26:37;;;;;;;1.35;1.27;;;;;;;5.58;73.21;100691.81;4486493;32;34945;-73
2023/01/24 06:29:05;;;;;;;1.62;1.27;;;;;;;6.07;70.11;100692.44;4486012;32;34747;-74
2023/01/24 06:32:00;;;;;;;1.67;1.62;;;;;;;5.29;73.14;100693.44;4486057;32;33615;-73
2023/01/24 06:35:07;;;;;;;0.60;0.60;;;;;;;5.37;73.56;100697.16;4462284;32;34028;-72
2023/01/24 06:37:54;;;;;;;0.80;0.80;;;;;;;5.68;71.91;100696.44;4483478;32;35773;-68
2023/01/24 06:40:25;;;;;;;;;;;;;;;5.71;71.52;100695.63;4486219;32;34616;-68
2023/01/24 06:42:53;;;;;;;0.70;0.70;;;;;;;5.61;71.37;100698.75;4485831;32;33483;-69
2023/01/24 06:45:22;;;;;;;1.80;1.70;;;;;;;4.97;74.06;100702.72;4486109;32;34601;-68
2023/01/24 06:47:50;;;;;;;0.57;0.57;;;;;;;5.96;70.41;100699.00;4485538;32;35894;-68
2023/01/24 06:50:20;;;;;;;1.15;0.95;;;;;;;5.58;71.63;100701.28;4485750;32;34442;-72
2023/01/24 06:52:50;;;;;;;1.45;1.35;;;;;;;5.05;73.88;100702.16;4471569;32;33331;-69
2023/01/24 06:55:18;;;;;;;0.98;0.98;;;;;;;5.26;74.79;100708.88;4471557;32;32222;-68
2023/01/24 06:57:54;;;;;;;3.05;2.85;;;;;;;5.72;72.20;100705.16;4485544;32;35812;-68
2023/01/24 07:00:22;;;;;;;0.85;0.82;;;;;;;5.05;75.37;100701.28;4485568;32;35314;-70
2023/01/24 07:03:07;;;;;;;1.85;1.42;;;;;;;5.07;76.76;100708.25;4484879;32;35645;-69
2023/01/24 07:05:37;;;;;;;1.42;1.33;;;;;;;4.85;81.13;100711.81;4485691;32;34653;-72
2023/01/24 07:08:05;;;;;;;1.12;1.12;;;;;;;5.49;78.26;100710.47;4485449;32;34982;-73
2023/01/24 07:10:34;;;;;;;0.82;0.82;;;;;;;5.58;77.09;100709.03;4485660;32;35073;-72
2023/01/24 07:13:02;;;;;;;1.98;1.85;;;;;;;5.54;77.52;100714.91;4485383;32;33556;-70
2023/01/24 07:15:30;;;;;;;2.92;1.58;;;;;;;6.62;73.72;100709.53;4485584;32;34816;-69
2023/01/24 07:18:05;;;;;;;1.10;1.10;;;;;;;6.94;71.64;100706.91;4485212;32;35127;-69
2023/01/24 07:20:34;;;;;;;1.75;0.82;;;;;;;7.59;69.22;100709.38;4485696;32;34677;-70
2023/01/24 07:23:02;;;;;;;0.70;0.70;;;;;;;8.07;68.30;100717.38;4468310;32;34323;-70
2023/01/24 07:25:31;;;;;;;0.50;0.50;;;;;;;7.62;68.67;100720.66;4469666;32;34024;-68
2023/01/24 07:27:59;;;;;;;1.30;1.02;;;;;;;8.90;64.45;100712.13;4478823;32;35990;-68
2023/01/24 07:30:28;;;;;;;0.90;0.90;;;;;;;8.34;66.72;100723.12;4485235;32;34554;-72
2023/01/24 07:32:56;;;;;;;0.50;0.50;;;;;;;8.57;66.71;100722.75;4485080;32;33534;-70
2023/01/24 07:35:24;;;;;;;0.88;0.88;;;;;;;8.82;64.59;100716.28;4485266;32;34072;-70
2023/01/24 07:37:52;;;;;;;0.80;0.80;;;;;;;9.13;64.21;100727.25;4484899;32;36023;-73
2023/01/24 07:40:20;;;;;;;0.80;0.80;;;;;;;9.11;63.95;100726.34;4485052;32;35378;-70
2023/01/24 07:42:48;;;;;;;0.70;0.70;;;;;;;9.50;64.95;100722.66;4484849;32;34885;-69
2023/01/24 07:45:16;;;;;;;4.50;3.03;;;;;;;9.44;64.78;100727.75;4485022;32;34887;-69
2023/01/24 07:47:44;;;;;;;2.62;2.42;;;;;;;9.36;66.06;100729.38;4485150;32;35958;-69
2023/01/24 07:50:13;;;;;;;2.12;1.92;;;;;;;9.52;65.35;100735.69;4485266;32;34258;-70
2023/01/24 07:52:40;;;;;;;0.50;0.50;;;;;;;10.08;62.91;100738.25;4484709;32;33466;-69
2023/01/24 07:55:09;;;;;;;0.80;0.80;;;;;;;10.00;62.67;100730.31;4484732;32;34629;-71
2023/01/24 07:57:37;;;;;;;1.27;1.17;;;;;;;9.75;63.39;100742.13;4484846;32;36001;-76
2023/01/24 08:00:06;;;;;;;3.90;2.97;;;;;;;9.91;62.78;100743.22;4484801;32;34404;-75
2023/01/24 08:02:37;;;;;;;1.62;1.55;;;;;;;9.50;65.00;100743.47;4484671;32;33208;-68
2023/01/24 08:05:06;;;;;;;2.25;2.05;;;;;;;9.34;65.23;100757.06;4484776;32;34880;-69
2023/01/24 08:07:34;;;;;;;1.35;1.25;;;;;;;9.60;64.66;100757.47;4484531;32;35279;-74
2023/01/24 08:10:04;;;;;;;3.35;2.62;;;;;;;9.78;63.43;100759.50;4484486;32;35182;-69
2023/01/24 08:12:32;;;;;;;2.40;0.98;;;;;;;9.56;64.58;100760.88;4484532;32;33773;-73
2023/01/24 08:15:00;;;;;;;2.30;1.98;;;;;;;8.27;68.70;100772.28;4486714;32;34657;-69
2023/01/24 08:17:28;;;;;;;1.55;1.45;;;;;;;8.51;68.64;100772.81;4486881;32;35769;-68
2023/01/24 08:19:57;;;;;;;1.98;1.87;;;;;;;8.27;68.95;100767.09;4472944;32;35310;-70
2023/01/24 08:22:25;;;;;;;3.22;2.90;;;;;;;9.23;65.94;100768.16;4486813;32;34377;-70
2023/01/24 08:24:53;;;;;;;2.15;1.98;;;;;;;9.47;64.96;100770.28;4486911;32;34050;-71
2023/01/24 08:27:21;;;;;;;2.87;2.67;;;;;;;9.90;64.85;100767.50;4486889;32;35579;-69
2023/01/24 08:29:49;;;;;;;1.95;1.85;;;;;;;9.58;64.26;100778.28;4486752;32;34424;-68
2023/01/24 08:32:17;;;;;;;1.05;1.05;;;;;;;10.13;63.40;100779.94;4486667;32;33435;-68
2023/01/24 08:34:46;;;;;;;5.03;1.95;;;;;;;9.60;63.49;100784.38;4486657;32;33970;-75
2023/01/24 08:37:14;;;;;;;0.98;0.98;;;;;;;10.65;61.40;100777.22;4486736;32;35094;-75
2023/01/24 08:39:42;;;;;;;1.48;1.37;;;;;;;9.56;63.40;100779.94;4472750;32;34557;-71
2023/01/24 08:42:11;;;;;;;0.82;0.82;;;;;;;11.20;60.42;100772.59;4486816;32;34368;-71
2023/01/24 08:44:39;;;;;;;2.55;2.30;;;;;;;11.22;59.36;100780.44;4486779;32;34743;-75
2023/01/24 08:47:07;;;;;;;1.90;1.25;;;;;;;10.65;59.90;100774.59;4486796;32;35829;-75
2023/01/24 08:49:36;;;;;;;1.10;1.10;;;;;;;11.66;58.82;100778.19;4486747;32;34495;-74
2023/01/24 08:52:04;;;;;;;2.15;1.80;;;;;;;12.17;55.93;100782.94;4486811;32;33471;-74
2023/01/24 08:54:32;;;;;;;1.73;1.62;;;;;;;11.45;59.57;100781.50;4486657;32;33948;-71
2023/01/24 08:57:04;;;;;;;0.75;0.75;;;;;;;12.05;56.37;100784.62;4486576;32;35889;-74
2023/01/24 08:59:32;;;;;;;1.10;1.10;;;;;;;12.22;55.58;100781.25;4486711;32;34475;-70
2023/01/24 09:02:00;;;;;;;3.92;3.55;;;;;;;12.60;55.15;100781.44;4486775;32;34425;-75
2023/01/24 09:04:31;;;;;;;1.90;1.80;;;;;;;12.56;55.23;100784.88;4486798;32;33850;-72
2023/01/24 09:06:59;;;;;;;2.15;2.00;;;;;;;12.26;54.81;100783.00;4486713;32;35847;-74
2023/01/24 09:09:28;;;;;;;2.75;2.55;;;;;;;13.54;52.11;100776.44;4486634;32;34352;-75
2023/01/24 09:11:56;;;;;;;2.97;2.78;;;;;;;13.37;52.85;100792.09;4486767;32;33418;-74
2023/01/24 09:14:24;;;;;;;2.72;2.17;;;;;;;12.86;54.05;100793.72;4486616;32;34045;-75
2023/01/24 09:16:52;;;;;;;7.12;5.12;;;;;;;12.33;55.13;100792.59;4486480;32;35111;-74
2023/01/24 09:19:20;;;;;;;2.12;1.85;;;;;;;13.17;52.83;100794.66;4486586;32;35218;-73
2023/01/24 09:21:51;;;;;;;5.95;3.53;;;;;;;12.33;55.56;100784.78;4486603;32;33549;-75
2023/01/24 09:24:20;;;;;;;3.45;2.60;;;;;;;12.82;53.85;100786.72;4486216;32;34856;-75
2023/01/24 09:26:48;;;;;;;3.65;3.37;;;;;;;12.33;55.72;100788.28;4486450;32;35998;-75
2023/01/24 09:29:16;;;;;;;8.27;2.95;;;;;;;11.78;57.47;100782.66;4486502;32;34506;-74
2023/01/24 09:31:46;;;;;;;1.73;1.60;;;;;;;11.30;58.73;100784.00;4486495;32;34284;-75
2023/01/24 09:34:15;;;;;;;2.03;1.83;;;;;;;11.71;57.40;100791.28;4486499;32;33900;-75
2023/01/24 09:36:43;;;;;;;2.75;2.53;;;;;;;12.16;55.40;100791.62;4486241;32;35736;-74
2023/01/24 09:39:11;;;;;;;3.42;2.33;;;;;;;11.40;58.17;100785.84;4486357;32;35307;-75
2023/01/24 09:41:49;;;;;;;2.00;1.85;;;;;;;11.43;58.63;100787.56;4486508;32;33637;-75
2023/01/24 09:44:50;;;;;;;2.28;1.67;;;;;;;11.92;56.77;100782.78;4486709;32;33905;-73
2023/01/24 09:47:22;;;;;;;2.35;2.15;;;;;;;11.49;57.49;100767.66;4486735;32;34853;-75
2023/01/24 09:49:59;;;;;;;1.25;1.15;;;;;;;11.82;57.44;100768.75;4486356;32;34365;-75
2023/01/24 09:52:41;;;;;;;2.62;2.10;;;;;;;11.15;59.52;100769.06;4472410;32;33692;-75
2023/01/24 09:55:34;;;;;;;3.05;2.85;;;;;;;12.10;55.45;100771.59;4485971;32;34937;-75
2023/01/24 09:58:30;;;;;;;2.53;2.17;;;;;;;11.46;57.81;100775.44;4472104;32;34910;-71
2023/01/24 10:01:07;;;;;;;4.62;2.95;;;;;;;10.92;59.90;100774.03;4473179;32;34266;-74
2023/01/24 10:03:36;;;;;;;2.47;2.30;;;;;;;10.67;60.85;100765.94;4486375;32;34369;-71
2023/01/24 10:06:16;;;;;;;1.27;1.25;;;;;;;10.24;61.61;100766.25;4472515;32;34675;-74
2023/01/24 10:09:07;;;;;;;6.32;3.28;;;;;;;11.26;59.38;100761.34;4472276;32;35017;-74
2023/01/24 10:11:51;;;;;;;3.10;1.85;;;;;;;11.65;58.66;100760.81;4486240;32;34671;-74
2023/01/24 10:14:47;;;;;;;1.73;1.62;;;;;;;12.97;55.55;100758.03;4486298;32;34269;-75
2023/01/24 10:17:25;;;;;;;1.52;1.35;;;;;;;13.13;54.21;100750.19;4486264;32;34888;-75
2023/01/24 10:20:29;;;;;;;2.40;2.28;;;;;;;14.32;51.39;100749.22;4472431;32;35060;-71
2023/01/24 10:23:12;;;;;;;2.20;2.10;;;;;;;15.84;46.39;100743.94;4472108;32;34337;-73
2023/01/24 10:25:55;;;;;;;2.17;2.00;;;;;;;16.76;43.50;100747.22;4486254;32;33166;-71
2023/01/24 10:28:27;;;;;;;1.90;1.73;;;;;;;15.44;45.49;100741.63;4486218;32;33967;-72
2023/01/24 10:31:12;;;;;;;4.55;2.28;;;;;;;15.17;46.49;100741.81;4486120;32;35034;-72
2023/01/24 10:33:50;;;;;;;2.17;1.98;;;;;;;15.54;46.09;100735.41;4486187;32;34444;-76
2023/01/24 10:36:37;;;;;;;2.47;2.00;;;;;;;15.80;43.65;100736.97;4485146;32;33446;-71
2023/01/24 10:39:05;;;;;;;;;;;;;;;14.71;45.16;100756.97;4486274;32;34814;-75
2023/01/24 10:41:34;;;;;;;2.12;1.95;;;;;;;14.01;45.17;100749.34;4486052;32;36150;-75
2023/01/24 10:44:08;;;;;;;2.12;2.03;;;;;;;12.75;49.71;100743.16;4485958;32;34411;-75
2023/01/24 10:47:02;;;;;;;1.60;1.50;;;;;;;11.98;48.61;100742.78;4486019;32;34030;-74
2023/01/24 10:49:36;;;;;;;1.85;1.75;;;;;;;12.46;48.34;100736.09;4485991;32;33976;-75
2023/01/24 10:52:19;;;;;;;2.28;2.10;;;;;;;12.37;48.03;100746.47;4485888;32;35098;-74
2023/01/24 10:54:53;;;;;;;1.40;1.30;;;;;;;13.34;46.60;100745.03;4471789;32;34373;-75
2023/01/24 10:57:27;;;;;;;2.10;1.95;;;;;;;14.27;43.96;100729.16;4486112;32;33469;-75
2023/01/24 10:59:55;;;;;;;0.82;0.77;;;;;;;13.70;45.80;100734.56;4485866;32;34108;-74
2023/01/24 11:02:25;;;;;;;3.70;1.58;;;;;;;13.94;45.02;100725.75;4471787;32;34939;-74
2023/01/24 11:05:00;;;;;;;3.10;2.22;;;;;;;13.64;44.52;100722.31;4485828;32;34427;-73
2023/01/24 11:07:33;;;;;;;5.25;4.62;;;;;;;13.82;45.01;100717.06;4483969;32;33359;-70
2023/01/24 11:10:19;;;;;;;5.10;4.47;;;;;;;14.25;45.27;100710.84;4471673;32;33862;-72
2023/01/24 11:13:04;;;;;;;1.92;1.83;;;;;;;13.77;44.02;100708.34;4485474;32;36025;-68
2023/01/24 11:15:35;;;;;;;1.92;1.70;;;;;;;13.31;45.05;100707.50;4485360;32;35025;-69
2023/01/24 11:18:21;;;;;;;10.80;6.37;;;;;;;14.10;44.86;100701.28;4485644;32;33176;-70
2023/01/24 11:21:11;;;;;;;4.47;4.07;;;;;;;12.33;53.51;100709.91;4471288;32;34100;-70
2023/01/24 11:23:43;;;;;;;3.30;1.45;;;;;;;12.73;52.25;100692.62;4485283;32;36004;-69
2023/01/24 11:26:26;;;;;;;2.35;2.15;;;;;;;12.95;50.92;100698.75;4485226;32;35263;-71
2023/01/24 11:29:14;;;;;;;3.55;1.85;;;;;;;12.14;52.92;100698.50;4485337;32;33354;-72
2023/01/24 11:31:53;;;;;;;1.33;1.23;;;;;;;11.36;54.77;100692.75;4478619;32;208810;-68
2023/01/24 11:34:36;;;;;;;2.67;1.92;;;;;;;12.49;54.35;100696.88;4471415;32;35166;-75
2023/01/24 11:37:22;;;;;;;2.28;2.12;;;;;;;13.14;51.36;100689.19;4467861;32;34382;-68
2023/01/24 11:40:07;;;;;;;7.93;2.97;;;;;;;12.95;52.29;100678.69;4469290;32;33712;-75
2023/01/24 11:42:36;;;;;;;1.95;1.45;;;;;;;12.61;53.76;100681.25;4481713;32;34006;-71
2023/01/24 11:45:49;;;;;;;3.95;3.55;;;;;;;12.28;53.62;100679.41;4471052;32;34284;-73
2023/01/24 11:48:22;;;;;;;3.33;3.03;;;;;;;11.32;58.97;100672.75;4456555;32;35202;-69
2023/01/24 11:51:27;;;;;;;4.93;3.90;;;;;;;11.68;56.78;100671.25;4472146;32;34346;-70
2023/01/24 11:54:13;;;;;;;3.90;2.58;;;;;;;11.98;56.38;100670.56;4476636;32;33864;-75
2023/01/24 11:56:45;;;;;;;1.33;1.23;;;;;;;11.28;59.15;100665.78;4486796;32;35024;-70
2023/01/24 11:59:37;;;;;;;5.28;3.35;;;;;;;10.70;61.56;100666.97;4473068;32;35328;-74
2023/01/24 12:02:21;;;;;;;2.20;1.90;;;;;;;10.49;62.72;100667.63;4486526;32;33423;-68
2023/01/24 12:05:11;;;;;;;2.35;2.17;;;;;;;10.17;63.45;100669.84;4472916;32;34023;-70
2023/01/24 12:08:02;;;;;;;2.47;2.28;;;;;;;10.21;61.60;100669.88;4486669;32;35019;-69
2023/01/24 12:10:53;;;;;;;2.83;2.62;;;;;;;10.22;62.54;100668.16;4486778;32;34894;-67
2023/01/24 12:13:41;;;;;;;2.40;2.17;;;;;;;10.59;62.44;100664.28;4475103;32;33535;-68
2023/01/24 12:16:43;;;;;;;1.65;1.40;;;;;;;10.62;62.69;100648.69;4486607;32;33885;-69
2023/01/24 12:19:14;;;;;;;1.67;1.58;;;;;;;11.07;60.47;100662.12;4486826;32;35859;-69
2023/01/24 12:21:43;;;;;;;4.03;3.62;;;;;;;10.28;62.96;100665.62;4486556;32;35150;-68
2023/01/24 12:24:18;;;;;;;1.77;1.62;;;;;;;10.04;65.53;100664.47;4486858;32;33552;-69
2023/01/24 12:26:53;;;;;;;3.03;2.20;;;;;;;10.03;64.39;100669.66;4472695;32;34799;-70
2023/01/24 12:29:28;;;;;;;7.65;3.62;;;;;;;10.68;62.14;100653.06;4472746;32;35942;-74
2023/01/24 12:32:08;;;;;;;2.35;1.95;;;;;;;10.07;64.51;100666.22;4472591;32;34161;-68
2023/01/24 12:34:59;;;;;;;3.87;3.53;;;;;;;10.10;64.69;100668.03;4486737;32;34479;-69